Laird, Colorado
Current Conditions -  °F | °C
As of 2:55 AM on Saturday 25 Oct 2014 (Local Time) from K2V5 Reporting Station
Clear Clear  
Wind Chill: 38°   Ceiling: Unl
Heat Index: 42°   Visibility: 10mi
Dew Point: 32°   Wind: 7mph
Humidity: 67%   Direction: 240°WSW
Pressure: 30.12"   Gusts: NA
Location:  40.1407°N, 102.218°W
Report Text: K2V5 250855Z AUTO 24006KT 10SM CLR 06/00 A3012 RMK AO2 T00571001
Loading
Personal Weather Stations






























Interactive Weather Map
Tropical Storm Tracking
New forecast layout! Learn more

10-Day Weather Forecast

Advertisements
Track Severe Weather on mobile